createdAt,value
2023-02-11T00:01:17.450Z,56.93
2023-02-11T00:03:44.936Z,58.70
2023-02-11T00:06:12.651Z,57.60
2023-02-11T00:08:40.151Z,65.27
2023-02-11T00:11:07.902Z,58.67
2023-02-11T00:13:35.417Z,63.43
2023-02-11T00:16:07.153Z,62.10
2023-02-11T00:18:34.624Z,60.90
2023-02-11T00:21:06.240Z,56.57
2023-02-11T00:23:33.795Z,55.80
2023-02-11T00:26:01.233Z,52.17
2023-02-11T00:28:28.749Z,60.77
2023-02-11T00:30:56.895Z,57.60
2023-02-11T00:33:24.498Z,55.60
2023-02-11T00:35:52.284Z,52.73
2023-02-11T00:38:19.922Z,64.87
2023-02-11T00:40:47.349Z,57.13
2023-02-11T00:43:14.845Z,53.27
2023-02-11T00:45:42.259Z,56.30
2023-02-11T00:48:09.734Z,51.90
2023-02-11T00:50:37.157Z,54.00
2023-02-11T00:53:04.707Z,54.50
2023-02-11T00:55:32.268Z,46.80
2023-02-11T00:58:00.216Z,56.43
2023-02-11T01:00:28.122Z,55.67
2023-02-11T01:02:55.934Z,53.60
2023-02-11T01:05:23.623Z,58.53
2023-02-11T01:07:51.236Z,55.80
2023-02-11T01:10:18.686Z,57.97
2023-02-11T01:12:46.470Z,54.70
2023-02-11T01:15:16.627Z,62.93
2023-02-11T01:17:44.231Z,65.70
2023-02-11T01:20:16.853Z,64.97
2023-02-11T01:22:44.360Z,64.37
2023-02-11T01:25:12.276Z,61.20
2023-02-11T01:27:40.026Z,64.20
2023-02-11T01:30:09.476Z,61.33
2023-02-11T01:32:37.273Z,55.17
2023-02-11T01:35:04.812Z,58.77
2023-02-11T01:37:34.014Z,59.37
2023-02-11T01:40:02.450Z,55.97
2023-02-11T01:42:30.165Z,64.67
2023-02-11T01:44:59.259Z,64.13
2023-02-11T01:47:26.738Z,62.50
2023-02-11T01:49:57.225Z,57.77
2023-02-11T01:52:27.558Z,61.93
2023-02-11T01:55:15.321Z,59.43
2023-02-11T01:57:44.066Z,65.93
2023-02-11T02:00:16.492Z,66.33
2023-02-11T02:02:57.106Z,62.20
2023-02-11T02:05:30.777Z,75.47
2023-02-11T02:08:05.695Z,73.70
2023-02-11T02:10:35.124Z,69.80
2023-02-11T02:13:02.715Z,71.60
2023-02-11T02:15:32.379Z,69.17
2023-02-11T02:18:07.046Z,69.97
2023-02-11T02:21:10.317Z,65.57
2023-02-11T02:24:00.875Z,70.27
2023-02-11T02:26:54.376Z,68.97
2023-02-11T02:29:45.080Z,64.63
2023-02-11T02:32:35.389Z,65.43
2023-02-11T02:35:26.002Z,63.40
2023-02-11T02:37:58.551Z,61.37
2023-02-11T02:40:34.143Z,66.80
2023-02-11T02:43:02.406Z,60.03
2023-02-11T02:45:29.886Z,69.07
2023-02-11T02:47:57.399Z,63.30
2023-02-11T02:50:30.378Z,59.83
2023-02-11T02:53:19.252Z,56.60
2023-02-11T02:56:29.767Z,56.80
2023-02-11T02:59:07.133Z,61.70
2023-02-11T03:01:49.171Z,58.53
2023-02-11T03:04:33.015Z,51.37
2023-02-11T03:07:26.435Z,64.87
2023-02-11T03:10:23.283Z,66.07
2023-02-11T03:12:51.317Z,64.43
2023-02-11T03:15:19.931Z,64.93
2023-02-11T03:17:48.996Z,56.37
2023-02-11T03:20:18.101Z,59.80
2023-02-11T03:22:48.801Z,63.07
2023-02-11T03:25:16.553Z,63.20
2023-02-11T03:27:55.103Z,63.83
2023-02-11T03:30:31.339Z,58.40
2023-02-11T03:33:02.015Z,55.97
2023-02-11T03:35:51.760Z,59.93
2023-02-11T03:38:22.584Z,63.03
2023-02-11T03:40:51.120Z,63.53
2023-02-11T03:43:23.596Z,62.93
2023-02-11T03:45:52.948Z,60.97
2023-02-11T03:48:26.293Z,64.63
2023-02-11T03:50:54.976Z,64.23
2023-02-11T03:53:23.759Z,64.07
2023-02-11T03:55:53.081Z,64.03
2023-02-11T03:58:20.734Z,66.57
2023-02-11T04:00:48.277Z,59.67
2023-02-11T04:03:15.765Z,61.93
2023-02-11T04:05:43.372Z,69.43
2023-02-11T04:08:10.780Z,61.77
2023-02-11T04:10:38.319Z,63.70
2023-02-11T04:13:05.957Z,66.30
2023-02-11T04:15:33.512Z,65.63
2023-02-11T04:18:00.993Z,63.10
2023-02-11T04:20:28.508Z,68.80
2023-02-11T04:22:55.932Z,62.23
2023-02-11T04:25:23.393Z,58.97
2023-02-11T04:27:50.829Z,73.43
2023-02-11T04:30:18.339Z,60.90
2023-02-11T04:32:45.811Z,62.77
2023-02-11T04:35:13.258Z,68.93
2023-02-11T04:37:40.741Z,65.00
2023-02-11T04:40:08.636Z,63.10
2023-02-11T04:42:36.039Z,68.43
2023-02-11T04:45:03.890Z,77.37
2023-02-11T04:47:31.348Z,80.60
2023-02-11T04:49:58.778Z,69.90
2023-02-11T04:52:26.228Z,68.50
2023-02-11T04:54:53.713Z,64.90
2023-02-11T04:57:21.116Z,65.10
2023-02-11T04:59:48.998Z,64.77
2023-02-11T05:02:16.520Z,64.23
2023-02-11T05:04:43.944Z,69.37
2023-02-11T05:07:11.393Z,63.33
2023-02-11T05:09:38.855Z,61.77
2023-02-11T05:12:06.392Z,61.43
2023-02-11T05:14:33.896Z,66.20
2023-02-11T05:17:01.372Z,72.73
2023-02-11T05:19:28.894Z,67.57
2023-02-11T05:22:02.661Z,70.80
2023-02-11T05:24:32.314Z,70.43
2023-02-11T05:26:59.787Z,68.10
2023-02-11T05:29:27.250Z,85.73
2023-02-11T05:31:54.740Z,68.70
2023-02-11T05:34:22.208Z,69.47
2023-02-11T05:36:49.618Z,75.67
2023-02-11T05:39:17.115Z,81.07
2023-02-11T05:41:44.678Z,76.93
2023-02-11T05:44:12.206Z,77.27
2023-02-11T05:46:39.854Z,70.43
2023-02-11T05:49:07.294Z,67.47
2023-02-11T05:51:34.713Z,67.27
2023-02-11T05:54:02.226Z,74.43
2023-02-11T05:56:29.633Z,79.13
2023-02-11T05:58:57.052Z,70.10
2023-02-11T06:01:24.494Z,69.70
2023-02-11T06:03:51.986Z,73.40
2023-02-11T06:06:19.503Z,72.70
2023-02-11T06:08:47.024Z,78.43
2023-02-11T06:11:17.995Z,70.17
2023-02-11T06:13:45.449Z,66.80
2023-02-11T06:16:12.937Z,64.90
2023-02-11T06:18:40.406Z,71.73
2023-02-11T06:21:08.911Z,83.03
2023-02-11T06:23:36.424Z,78.43
2023-02-11T06:26:04.737Z,71.63
2023-02-11T06:28:32.327Z,82.97
2023-02-11T06:31:00.634Z,76.50
2023-02-11T06:33:28.133Z,86.33
2023-02-11T06:35:55.554Z,81.40
2023-02-11T06:38:23.043Z,81.70
2023-02-11T06:40:50.964Z,81.67
2023-02-11T06:43:18.524Z,75.73
2023-02-11T06:45:45.963Z,73.90
2023-02-11T06:48:13.518Z,88.85
2023-02-11T06:50:40.937Z,79.50
2023-02-11T06:53:08.369Z,73.37
2023-02-11T06:55:36.099Z,74.70
2023-02-11T06:58:03.577Z,71.60
2023-02-11T07:00:31.341Z,70.57
2023-02-11T07:02:59.105Z,75.50
2023-02-11T07:05:26.641Z,69.53
2023-02-11T07:07:54.142Z,83.60
2023-02-11T07:10:21.599Z,75.97
2023-02-11T07:12:49.288Z,72.13
2023-02-11T07:15:16.796Z,70.67
2023-02-11T07:17:44.245Z,75.70
2023-02-11T07:20:14.716Z,72.10
2023-02-11T07:22:42.254Z,71.13
2023-02-11T07:25:09.728Z,70.90
2023-02-11T07:27:37.211Z,67.40
2023-02-11T07:30:07.328Z,69.50
2023-02-11T07:32:35.234Z,77.13
2023-02-11T07:35:02.942Z,72.47
2023-02-11T07:37:30.517Z,71.00
2023-02-11T07:39:57.967Z,66.03
2023-02-11T07:42:25.446Z,69.53
2023-02-11T07:44:52.880Z,66.90
2023-02-11T07:47:20.333Z,69.77
2023-02-11T07:49:47.819Z,71.37
2023-02-11T07:52:15.350Z,71.63
2023-02-11T07:54:42.753Z,74.77
2023-02-11T07:57:10.245Z,60.70
2023-02-11T07:59:37.695Z,64.20
2023-02-11T08:02:05.229Z,67.87
2023-02-11T08:04:32.696Z,81.63
2023-02-11T08:07:00.204Z,71.83
2023-02-11T08:09:27.612Z,73.93
2023-02-11T08:11:55.036Z,60.97
2023-02-11T08:14:22.502Z,62.83
2023-02-11T08:16:50.012Z,64.70
2023-02-11T08:19:17.885Z,58.97
2023-02-11T08:21:46.041Z,54.03
2023-02-11T08:24:13.499Z,63.53
2023-02-11T08:26:41.161Z,57.20
2023-02-11T08:29:12.816Z,65.47
2023-02-11T08:31:42.294Z,61.37
2023-02-11T08:34:11.551Z,58.03
2023-02-11T08:36:40.907Z,60.97
2023-02-11T08:39:19.301Z,57.33
2023-02-11T08:41:48.962Z,57.00
2023-02-11T08:44:16.772Z,60.67
2023-02-11T08:46:44.260Z,58.77
2023-02-11T08:49:11.834Z,55.30
2023-02-11T08:51:39.419Z,50.00
2023-02-11T08:54:09.593Z,56.90
2023-02-11T08:56:37.729Z,66.70
2023-02-11T08:59:05.249Z,60.13
2023-02-11T09:01:33.054Z,65.13
2023-02-11T09:04:01.263Z,65.27
2023-02-11T09:06:29.248Z,70.20
2023-02-11T09:08:58.287Z,61.93
2023-02-11T09:11:28.331Z,56.13
2023-02-11T09:13:55.801Z,59.47
2023-02-11T09:16:24.952Z,57.03
2023-02-11T09:18:53.085Z,63.07
2023-02-11T09:21:20.834Z,56.20
2023-02-11T09:23:48.353Z,57.43
2023-02-11T09:26:17.676Z,59.30
2023-02-11T09:28:45.111Z,55.00
2023-02-11T09:31:14.107Z,53.17
2023-02-11T09:33:47.821Z,50.13
2023-02-11T09:36:20.027Z,58.50
2023-02-11T09:38:48.010Z,48.57
2023-02-11T09:41:35.660Z,50.83
2023-02-11T09:44:05.077Z,50.87
2023-02-11T09:46:34.001Z,51.97
2023-02-11T09:49:01.857Z,54.37
2023-02-11T09:52:01.453Z,55.07
2023-02-11T09:54:38.026Z,50.17
2023-02-11T09:57:06.592Z,55.00
2023-02-11T09:59:34.061Z,52.00
2023-02-11T10:02:18.009Z,54.07
2023-02-11T10:04:55.796Z,55.00
2023-02-11T10:07:32.578Z,51.10
2023-02-11T10:10:32.454Z,54.27
2023-02-11T10:13:40.831Z,55.03
2023-02-11T10:16:16.701Z,58.83
2023-02-11T10:19:05.380Z,53.70
2023-02-11T10:21:46.584Z,58.70
2023-02-11T10:24:16.132Z,53.07
2023-02-11T10:26:44.452Z,52.23
2023-02-11T10:29:35.072Z,55.53
2023-02-11T10:32:04.536Z,50.17
2023-02-11T10:34:32.018Z,48.07
2023-02-11T10:37:00.467Z,44.37
2023-02-11T10:39:28.523Z,46.77
2023-02-11T10:42:02.031Z,45.90
2023-02-11T10:44:33.495Z,52.10
2023-02-11T10:47:04.051Z,45.60
2023-02-11T10:49:49.967Z,47.03
2023-02-11T10:52:27.622Z,49.90
2023-02-11T10:54:58.944Z,47.93
2023-02-11T10:57:34.895Z,48.60
2023-02-11T11:00:25.771Z,49.63
2023-02-11T11:02:55.414Z,51.43
2023-02-11T11:05:32.203Z,57.37
2023-02-11T11:08:07.612Z,58.97
2023-02-11T11:10:37.351Z,59.13
2023-02-11T11:13:04.839Z,49.83
2023-02-11T11:15:32.989Z,53.20
2023-02-11T11:18:22.500Z,59.47
2023-02-11T11:21:01.671Z,54.50
2023-02-11T11:23:30.611Z,54.50
2023-02-11T11:26:17.843Z,57.30
2023-02-11T11:29:08.814Z,46.70
2023-02-11T11:31:38.505Z,56.47
2023-02-11T11:34:19.782Z,52.50
2023-02-11T11:36:47.384Z,43.63
2023-02-11T11:39:23.129Z,49.07
2023-02-11T11:41:52.015Z,47.27
2023-02-11T11:44:26.836Z,36.50
2023-02-11T11:47:08.178Z,43.17
2023-02-11T11:49:37.430Z,39.53
2023-02-11T11:52:31.170Z,38.53
2023-02-11T11:55:08.051Z,43.63
2023-02-11T11:57:38.038Z,44.40
2023-02-11T12:00:06.922Z,39.23
2023-02-11T12:02:53.004Z,45.20
2023-02-11T12:05:26.906Z,42.57
2023-02-11T12:08:14.742Z,40.67
2023-02-11T12:11:02.411Z,39.67
2023-02-11T12:13:44.923Z,43.47
2023-02-11T12:16:21.468Z,39.13
2023-02-11T12:19:21.670Z,38.77
2023-02-11T12:22:09.834Z,40.90
2023-02-11T12:24:53.554Z,40.23
2023-02-11T12:27:37.142Z,31.10
2023-02-11T12:30:24.396Z,36.27
2023-02-11T12:33:14.529Z,39.33
2023-02-11T12:36:00.802Z,33.67
2023-02-11T12:42:11.520Z,31.50
2023-02-11T12:44:50.821Z,35.03
2023-02-11T12:47:47.576Z,38.37
2023-02-11T12:50:28.723Z,39.97
2023-02-11T12:53:15.648Z,40.27
2023-02-11T12:55:45.414Z,40.03
2023-02-11T12:58:29.686Z,38.40
2023-02-11T13:01:09.802Z,38.63
2023-02-11T13:03:43.336Z,39.87
2023-02-11T13:06:14.117Z,34.60
2023-02-11T13:08:43.400Z,39.87
2023-02-11T13:11:16.309Z,35.07
2023-02-11T13:13:54.394Z,35.73
2023-02-11T13:16:42.174Z,35.07
2023-02-11T13:19:35.871Z,38.63
2023-02-11T13:22:19.136Z,34.73
2023-02-11T13:25:12.896Z,40.33
2023-02-11T13:28:06.666Z,34.33
2023-02-11T13:30:39.642Z,32.67
2023-02-11T13:33:27.407Z,36.83
2023-02-11T13:36:14.757Z,36.83
2023-02-11T13:38:42.662Z,32.80
2023-02-11T13:41:23.623Z,33.07
2023-02-11T13:44:22.794Z,36.23
2023-02-11T13:47:01.524Z,32.53
2023-02-11T13:49:37.341Z,34.90
2023-02-11T13:52:06.825Z,29.63
2023-02-11T13:54:39.011Z,29.87
2023-02-11T13:57:28.371Z,35.47
2023-02-11T13:59:57.098Z,34.27
2023-02-11T14:02:45.373Z,34.80
2023-02-11T14:05:57.756Z,31.93
2023-02-11T14:08:44.368Z,30.67
2023-02-11T14:11:30.641Z,33.30
2023-02-11T14:14:22.745Z,35.33
2023-02-11T14:17:16.444Z,32.03
2023-02-11T14:19:45.128Z,27.10
2023-02-11T14:22:39.093Z,26.60
2023-02-11T14:25:16.273Z,32.03
2023-02-11T14:27:52.383Z,30.47
2023-02-11T14:30:42.831Z,27.73
2023-02-11T14:33:43.118Z,26.13
2023-02-11T14:36:33.562Z,29.03
2023-02-11T14:39:21.436Z,27.93
2023-02-11T14:41:51.196Z,28.23
2023-02-11T14:44:20.288Z,31.93
2023-02-11T14:46:49.090Z,30.20
2023-02-11T14:49:25.496Z,28.60
2023-02-11T14:51:53.997Z,30.93
2023-02-11T14:54:26.538Z,28.03
2023-02-11T14:57:07.687Z,31.57
2023-02-11T14:59:35.364Z,28.13
2023-02-11T15:02:02.818Z,34.80
2023-02-11T15:04:31.801Z,32.53
2023-02-11T15:07:01.463Z,30.47
2023-02-11T15:09:45.689Z,27.97
2023-02-11T15:12:24.529Z,33.07
2023-02-11T15:14:54.860Z,29.60
2023-02-11T15:17:24.004Z,35.00
2023-02-11T15:19:53.328Z,33.57
2023-02-11T15:22:22.959Z,29.00
2023-02-11T15:25:24.114Z,27.60
2023-02-11T15:27:53.109Z,31.13
2023-02-11T15:30:38.624Z,36.63
2023-02-11T15:33:07.029Z,28.73
2023-02-11T15:35:36.763Z,32.13
2023-02-11T15:38:05.287Z,30.93
2023-02-11T15:40:33.890Z,32.43
2023-02-11T15:43:09.172Z,33.60
2023-02-11T15:45:40.870Z,31.07
2023-02-11T15:48:20.351Z,33.83
2023-02-11T15:50:52.348Z,33.03
2023-02-11T15:53:23.613Z,31.57
2023-02-11T15:55:56.102Z,29.67
2023-02-11T15:58:23.893Z,32.53
2023-02-11T16:00:59.823Z,35.40
2023-02-11T16:03:32.656Z,31.20
2023-02-11T16:06:16.332Z,30.23
2023-02-11T16:08:43.903Z,32.43
2023-02-11T16:11:25.581Z,31.60
2023-02-11T16:13:53.076Z,32.77
2023-02-11T16:16:22.612Z,34.87
2023-02-11T16:19:04.323Z,35.53
2023-02-11T16:21:39.356Z,35.93
2023-02-11T16:24:08.133Z,34.23
2023-02-11T16:26:37.132Z,34.33
2023-02-11T16:29:06.403Z,34.40
2023-02-11T16:31:34.900Z,36.27
2023-02-11T16:34:02.393Z,35.17
2023-02-11T16:36:29.881Z,34.63
2023-02-11T16:38:57.394Z,35.17
2023-02-11T16:41:24.846Z,32.67
2023-02-11T16:43:52.312Z,32.23
2023-02-11T16:46:19.889Z,36.77
2023-02-11T16:48:47.379Z,35.80
2023-02-11T16:51:14.824Z,38.20
2023-02-11T16:53:42.381Z,40.20
2023-02-11T16:56:14.740Z,33.00
2023-02-11T16:58:42.219Z,34.03
2023-02-11T17:01:12.788Z,36.47
2023-02-11T17:03:41.332Z,35.93
2023-02-11T17:06:12.671Z,40.03
2023-02-11T17:08:40.809Z,38.23
2023-02-11T17:11:08.226Z,36.10
2023-02-11T17:13:36.552Z,42.03
2023-02-11T17:16:04.021Z,38.23
2023-02-11T17:18:31.792Z,37.97
2023-02-11T17:20:59.185Z,35.67
2023-02-11T17:23:26.664Z,35.93
2023-02-11T17:25:57.383Z,33.47
2023-02-11T17:28:25.429Z,37.87
2023-02-11T17:30:52.984Z,37.63
2023-02-11T17:33:20.444Z,39.37
2023-02-11T17:35:47.910Z,41.80
2023-02-11T17:38:15.433Z,43.30
2023-02-11T17:40:43.003Z,38.60
2023-02-11T17:43:10.420Z,40.13
2023-02-11T17:45:41.702Z,41.57
2023-02-11T17:48:09.197Z,36.73
2023-02-11T17:50:37.309Z,41.07
2023-02-11T17:53:05.175Z,42.10
2023-02-11T17:55:35.831Z,37.73
2023-02-11T17:58:03.414Z,41.90
2023-02-11T18:00:30.903Z,41.53
2023-02-11T18:02:59.094Z,41.40
2023-02-11T18:05:27.477Z,46.20
2023-02-11T18:07:55.795Z,40.13
2023-02-11T18:10:23.323Z,44.53
2023-02-11T18:12:50.901Z,37.87
2023-02-11T18:15:18.644Z,43.47
2023-02-11T18:17:46.364Z,44.20
2023-02-11T18:20:13.880Z,39.60
2023-02-11T18:22:41.524Z,42.13
2023-02-11T18:25:09.674Z,42.40
2023-02-11T18:27:37.345Z,40.73
2023-02-11T18:30:05.014Z,40.47
2023-02-11T18:32:32.621Z,40.83
2023-02-11T18:35:00.053Z,46.53
2023-02-11T18:37:27.504Z,40.73
2023-02-11T18:39:54.997Z,42.90
2023-02-11T18:42:22.513Z,40.20
2023-02-11T18:44:50.203Z,35.63
2023-02-11T18:47:17.756Z,45.40
2023-02-11T18:49:45.213Z,38.17
2023-02-11T18:52:12.800Z,42.40
2023-02-11T18:54:40.281Z,42.93
2023-02-11T18:57:07.786Z,43.40
2023-02-11T18:59:35.296Z,41.10
2023-02-11T19:02:02.795Z,43.07
2023-02-11T19:04:30.302Z,42.73
2023-02-11T19:07:03.200Z,45.73
2023-02-11T19:09:31.296Z,41.73
2023-02-11T19:12:00.888Z,43.13
2023-02-11T19:14:29.641Z,47.23
2023-02-11T19:16:58.315Z,41.80
2023-02-11T19:19:27.953Z,39.47
2023-02-11T19:21:56.234Z,43.70
2023-02-11T19:24:24.389Z,43.13
2023-02-11T19:26:52.787Z,41.67
2023-02-11T19:29:20.297Z,44.10
2023-02-11T19:31:47.949Z,42.73
2023-02-11T19:34:16.445Z,42.10
2023-02-11T19:36:44.191Z,42.10
2023-02-11T19:39:11.753Z,54.67
2023-02-11T19:41:39.278Z,49.90
2023-02-11T19:44:07.898Z,41.47
2023-02-11T19:46:37.028Z,40.03
2023-02-11T19:49:06.139Z,44.07
2023-02-11T19:51:33.991Z,40.93
2023-02-11T19:54:01.565Z,40.40
2023-02-11T19:56:29.402Z,39.13
2023-02-11T19:58:57.239Z,40.83
2023-02-11T20:01:25.245Z,41.13
2023-02-11T20:03:53.959Z,43.17
2023-02-11T20:06:26.391Z,44.13
2023-02-11T20:08:58.234Z,44.27
2023-02-11T20:11:25.977Z,41.10
2023-02-11T20:13:53.385Z,45.47
2023-02-11T20:16:23.158Z,46.77
2023-02-11T20:18:51.505Z,41.73
2023-02-11T20:21:24.155Z,46.23
2023-02-11T20:23:51.786Z,46.27
2023-02-11T20:26:23.441Z,50.37
2023-02-11T20:28:52.134Z,48.63
2023-02-11T20:31:20.060Z,42.80
2023-02-11T20:33:48.682Z,47.27
2023-02-11T20:36:17.590Z,47.37
2023-02-11T20:38:45.657Z,49.13
2023-02-11T20:41:14.913Z,49.17
2023-02-11T20:43:45.822Z,43.57
2023-02-11T20:46:13.972Z,46.73
2023-02-11T20:48:41.726Z,43.80
2023-02-11T20:51:11.124Z,49.97
2023-02-11T20:53:39.673Z,48.73
2023-02-11T20:56:08.127Z,43.87
2023-02-11T20:58:35.944Z,46.37
2023-02-11T21:01:32.805Z,48.03
2023-02-11T21:04:02.448Z,49.80
2023-02-11T21:06:34.694Z,49.80
2023-02-11T21:09:02.563Z,44.43
2023-02-11T21:11:31.459Z,49.00
2023-02-11T21:13:58.951Z,46.67
2023-02-11T21:16:26.667Z,48.30
2023-02-11T21:18:55.448Z,50.10
2023-02-11T21:21:22.994Z,47.27
2023-02-11T21:23:50.592Z,45.20
2023-02-11T21:26:18.108Z,48.00
2023-02-11T21:28:45.932Z,47.63
2023-02-11T21:31:22.455Z,44.93
2023-02-11T21:33:50.562Z,46.00
2023-02-11T21:36:18.434Z,50.40
2023-02-11T21:38:46.076Z,50.13
2023-02-11T21:41:13.765Z,47.83
2023-02-11T21:43:41.309Z,49.60
2023-02-11T21:46:09.976Z,46.97
2023-02-11T21:48:37.771Z,43.60
2023-02-11T21:51:06.552Z,46.33
2023-02-11T21:53:34.156Z,48.40
2023-02-11T21:56:05.229Z,49.83
2023-02-11T21:58:32.727Z,46.40
2023-02-11T22:01:00.265Z,51.87
2023-02-11T22:03:27.946Z,53.07
2023-02-11T22:05:55.769Z,52.40
2023-02-11T22:08:23.500Z,44.90
2023-02-11T22:10:50.953Z,46.80
2023-02-11T22:13:18.442Z,47.30
2023-02-11T22:15:45.964Z,46.13
2023-02-11T22:18:13.573Z,46.87
2023-02-11T22:20:41.031Z,51.23
2023-02-11T22:23:08.485Z,44.63
2023-02-11T22:25:37.217Z,49.63
2023-02-11T22:28:04.858Z,50.63
2023-02-11T22:30:32.342Z,51.50
2023-02-11T22:32:59.822Z,56.13
2023-02-11T22:35:27.256Z,52.00
2023-02-11T22:37:54.900Z,48.83
2023-02-11T22:40:23.500Z,53.73
2023-02-11T22:42:50.990Z,51.90
2023-02-11T22:45:18.624Z,47.80
2023-02-11T22:47:46.054Z,50.47
2023-02-11T22:50:13.497Z,57.60
2023-02-11T22:52:41.012Z,52.70
2023-02-11T22:55:08.739Z,54.83
2023-02-11T22:57:36.224Z,55.77
2023-02-11T23:00:04.423Z,47.10
2023-02-11T23:02:33.527Z,50.37
2023-02-11T23:05:00.977Z,45.83
2023-02-11T23:07:28.547Z,48.00
2023-02-11T23:09:56.019Z,48.07
2023-02-11T23:12:23.544Z,55.20
2023-02-11T23:14:51.733Z,52.13
2023-02-11T23:17:20.299Z,52.67
2023-02-11T23:19:47.727Z,52.00
2023-02-11T23:22:15.229Z,51.23
2023-02-11T23:24:42.709Z,50.20
2023-02-11T23:27:10.250Z,54.63
2023-02-11T23:29:37.839Z,52.70
2023-02-11T23:32:05.494Z,49.40
2023-02-11T23:34:32.974Z,50.43
2023-02-11T23:37:00.772Z,50.87
2023-02-11T23:39:29.404Z,57.80
2023-02-11T23:41:59.081Z,48.13
2023-02-11T23:44:27.439Z,50.90
2023-02-11T23:46:54.885Z,45.90
2023-02-11T23:49:22.395Z,50.83
2023-02-11T23:51:49.900Z,50.80
2023-02-11T23:54:17.432Z,49.40
2023-02-11T23:56:44.889Z,50.40
2023-02-11T23:59:12.328Z,47.53
